sensor_id;sensor_type;location;lat;lon;timestamp;pressure;altitude;pressure_sealevel;temperature;humidity
17785;BME280;9016;53.582;10.062;2023-03-22T00:02:12;100863.31;;;12.35;82.68
17785;BME280;9016;53.582;10.062;2023-03-22T00:04:42;100868.66;;;12.35;82.48
17785;BME280;9016;53.582;10.062;2023-03-22T00:07:10;100866.16;;;12.46;82.99
17785;BME280;9016;53.582;10.062;2023-03-22T00:09:38;100863.22;;;12.36;82.40
17785;BME280;9016;53.582;10.062;2023-03-22T00:12:06;100857.88;;;12.36;82.88
17785;BME280;9016;53.582;10.062;2023-03-22T00:14:34;100861.84;;;12.43;83.09
17785;BME280;9016;53.582;10.062;2023-03-22T00:17:02;100849.50;;;12.55;82.09
17785;BME280;9016;53.582;10.062;2023-03-22T00:19:30;100849.66;;;12.66;81.81
17785;BME280;9016;53.582;10.062;2023-03-22T00:22:01;100834.25;;;12.69;80.85
17785;BME280;9016;53.582;10.062;2023-03-22T00:24:31;100837.75;;;12.57;81.79
17785;BME280;9016;53.582;10.062;2023-03-22T00:26:59;100838.72;;;12.56;81.27
17785;BME280;9016;53.582;10.062;2023-03-22T00:29:27;100825.13;;;12.47;82.42
17785;BME280;9016;53.582;10.062;2023-03-22T00:31:55;100825.69;;;12.64;81.84
17785;BME280;9016;53.582;10.062;2023-03-22T00:34:23;100826.84;;;12.60;82.07
17785;BME280;9016;53.582;10.062;2023-03-22T00:36:53;100820.69;;;12.72;81.42
17785;BME280;9016;53.582;10.062;2023-03-22T00:39:23;100815.03;;;12.77;81.15
17785;BME280;9016;53.582;10.062;2023-03-22T00:41:52;100819.47;;;12.64;81.07
17785;BME280;9016;53.582;10.062;2023-03-22T00:44:20;100813.63;;;12.71;81.09
17785;BME280;9016;53.582;10.062;2023-03-22T00:46:48;100825.94;;;12.74;81.16
17785;BME280;9016;53.582;10.062;2023-03-22T00:49:16;100818.97;;;12.71;81.35
17785;BME280;9016;53.582;10.062;2023-03-22T00:51:44;100823.44;;;12.71;81.69
17785;BME280;9016;53.582;10.062;2023-03-22T00:54:12;100822.41;;;12.73;81.26
17785;BME280;9016;53.582;10.062;2023-03-22T00:56:41;100810.63;;;12.63;81.12
17785;BME280;9016;53.582;10.062;2023-03-22T00:59:10;100811.06;;;12.70;81.81
17785;BME280;9016;53.582;10.062;2023-03-22T01:01:39;100807.00;;;12.77;81.45
17785;BME280;9016;53.582;10.062;2023-03-22T01:04:07;100801.34;;;12.81;80.56
17785;BME280;9016;53.582;10.062;2023-03-22T01:06:35;100802.63;;;12.88;80.88
17785;BME280;9016;53.582;10.062;2023-03-22T01:09:03;100800.91;;;12.87;80.90
17785;BME280;9016;53.582;10.062;2023-03-22T01:11:31;100802.53;;;12.90;80.77
17785;BME280;9016;53.582;10.062;2023-03-22T01:14:00;100797.81;;;12.93;80.45
17785;BME280;9016;53.582;10.062;2023-03-22T01:16:29;100788.41;;;13.01;80.40
17785;BME280;9016;53.582;10.062;2023-03-22T01:18:57;100785.66;;;13.02;79.69
17785;BME280;9016;53.582;10.062;2023-03-22T01:21:25;100788.66;;;13.10;79.79
17785;BME280;9016;53.582;10.062;2023-03-22T01:23:53;100782.09;;;13.02;79.45
17785;BME280;9016;53.582;10.062;2023-03-22T01:26:21;100775.13;;;12.99;79.95
17785;BME280;9016;53.582;10.062;2023-03-22T01:28:49;100779.84;;;12.95;80.02
17785;BME280;9016;53.582;10.062;2023-03-22T01:31:18;100776.00;;;13.00;80.24
17785;BME280;9016;53.582;10.062;2023-03-22T01:33:46;100776.88;;;13.00;79.98
17785;BME280;9016;53.582;10.062;2023-03-22T01:36:14;100767.78;;;13.03;80.22
17785;BME280;9016;53.582;10.062;2023-03-22T01:38:42;100775.50;;;13.07;80.20
17785;BME280;9016;53.582;10.062;2023-03-22T01:41:10;100767.00;;;13.01;79.68
17785;BME280;9016;53.582;10.062;2023-03-22T01:43:38;100756.00;;;12.92;78.91
17785;BME280;9016;53.582;10.062;2023-03-22T01:46:06;100753.63;;;13.01;79.73
17785;BME280;9016;53.582;10.062;2023-03-22T01:48:38;100758.03;;;12.89;80.10
17785;BME280;9016;53.582;10.062;2023-03-22T01:51:10;100740.91;;;12.79;80.82
17785;BME280;9016;53.582;10.062;2023-03-22T01:53:40;100745.94;;;12.83;80.76
17785;BME280;9016;53.582;10.062;2023-03-22T01:56:09;100738.34;;;12.90;80.69
17785;BME280;9016;53.582;10.062;2023-03-22T01:58:38;100735.66;;;12.90;80.15
17785;BME280;9016;53.582;10.062;2023-03-22T02:01:09;100737.69;;;12.86;80.15
17785;BME280;9016;53.582;10.062;2023-03-22T02:03:45;100730.66;;;12.85;80.36
17785;BME280;9016;53.582;10.062;2023-03-22T02:06:15;100730.00;;;12.94;80.39
17785;BME280;9016;53.582;10.062;2023-03-22T02:08:43;100727.97;;;12.85;80.12
17785;BME280;9016;53.582;10.062;2023-03-22T02:11:14;100732.78;;;12.80;80.92
17785;BME280;9016;53.582;10.062;2023-03-22T02:13:57;100725.94;;;12.89;79.77
17785;BME280;9016;53.582;10.062;2023-03-22T02:16:38;100726.88;;;12.88;79.41
17785;BME280;9016;53.582;10.062;2023-03-22T02:19:37;100728.50;;;12.90;79.75
17785;BME280;9016;53.582;10.062;2023-03-22T02:22:35;100717.94;;;12.89;79.37
17785;BME280;9016;53.582;10.062;2023-03-22T02:25:38;100713.84;;;12.83;79.87
17785;BME280;9016;53.582;10.062;2023-03-22T02:28:26;100717.91;;;12.64;80.00
17785;BME280;9016;53.582;10.062;2023-03-22T02:31:13;100711.38;;;12.55;80.20
17785;BME280;9016;53.582;10.062;2023-03-22T02:33:58;100709.75;;;12.53;81.77
17785;BME280;9016;53.582;10.062;2023-03-22T02:39:38;100700.69;;;12.55;81.73
17785;BME280;9016;53.582;10.062;2023-03-22T02:42:25;100695.13;;;12.58;81.22
17785;BME280;9016;53.582;10.062;2023-03-22T02:45:00;100689.34;;;12.64;81.98
17785;BME280;9016;53.582;10.062;2023-03-22T02:47:36;100688.06;;;12.70;81.17
17785;BME280;9016;53.582;10.062;2023-03-22T02:50:12;100689.78;;;12.71;81.24
17785;BME280;9016;53.582;10.062;2023-03-22T02:52:44;100702.59;;;12.66;81.57
17785;BME280;9016;53.582;10.062;2023-03-22T02:55:19;100685.72;;;12.65;81.12
17785;BME280;9016;53.582;10.062;2023-03-22T02:57:53;100692.31;;;12.35;82.45
17785;BME280;9016;53.582;10.062;2023-03-22T03:00:23;100684.84;;;12.40;83.05
17785;BME280;9016;53.582;10.062;2023-03-22T03:02:54;100685.06;;;12.49;82.18
17785;BME280;9016;53.582;10.062;2023-03-22T03:05:24;100686.47;;;12.55;82.41
17785;BME280;9016;53.582;10.062;2023-03-22T03:07:56;100684.00;;;12.52;82.62
17785;BME280;9016;53.582;10.062;2023-03-22T03:10:28;100682.28;;;12.51;82.13
17785;BME280;9016;53.582;10.062;2023-03-22T03:12:57;100680.81;;;12.59;81.98
17785;BME280;9016;53.582;10.062;2023-03-22T03:15:24;100678.44;;;12.55;81.65
17785;BME280;9016;53.582;10.062;2023-03-22T03:18:15;100675.00;;;12.65;81.61
17785;BME280;9016;53.582;10.062;2023-03-22T03:20:53;100679.31;;;12.55;80.73
17785;BME280;9016;53.582;10.062;2023-03-22T03:23:27;100667.31;;;12.61;82.05
17785;BME280;9016;53.582;10.062;2023-03-22T03:26:06;100668.50;;;12.69;81.52
17785;BME280;9016;53.582;10.062;2023-03-22T03:28:44;100666.25;;;12.76;80.88
17785;BME280;9016;53.582;10.062;2023-03-22T03:31:24;100666.66;;;12.82;81.12
17785;BME280;9016;53.582;10.062;2023-03-22T03:34:01;100658.00;;;12.79;80.05
17785;BME280;9016;53.582;10.062;2023-03-22T03:36:33;100653.09;;;12.73;80.32
17785;BME280;9016;53.582;10.062;2023-03-22T03:39:05;100662.41;;;12.67;80.71
17785;BME280;9016;53.582;10.062;2023-03-22T03:41:37;100658.66;;;12.70;80.14
17785;BME280;9016;53.582;10.062;2023-03-22T03:44:07;100660.25;;;12.60;80.41
17785;BME280;9016;53.582;10.062;2023-03-22T03:46:36;100657.25;;;12.77;80.82
17785;BME280;9016;53.582;10.062;2023-03-22T03:49:04;100650.34;;;12.74;80.35
17785;BME280;9016;53.582;10.062;2023-03-22T03:51:44;100657.16;;;12.78;79.49
17785;BME280;9016;53.582;10.062;2023-03-22T03:54:13;100656.00;;;12.70;79.85
17785;BME280;9016;53.582;10.062;2023-03-22T03:56:42;100649.03;;;12.67;79.86
17785;BME280;9016;53.582;10.062;2023-03-22T03:59:10;100652.34;;;12.71;79.74
17785;BME280;9016;53.582;10.062;2023-03-22T04:01:38;100652.56;;;12.80;78.34
17785;BME280;9016;53.582;10.062;2023-03-22T04:04:06;100650.88;;;12.67;77.99
17785;BME280;9016;53.582;10.062;2023-03-22T04:06:35;100646.16;;;12.70;77.95
17785;BME280;9016;53.582;10.062;2023-03-22T04:09:05;100642.50;;;12.84;77.75
17785;BME280;9016;53.582;10.062;2023-03-22T04:11:33;100651.81;;;12.66;77.57
17785;BME280;9016;53.582;10.062;2023-03-22T04:14:02;100651.16;;;12.75;77.81
17785;BME280;9016;53.582;10.062;2023-03-22T04:16:30;100646.28;;;12.69;77.75
17785;BME280;9016;53.582;10.062;2023-03-22T04:18:58;100656.41;;;12.76;77.01
17785;BME280;9016;53.582;10.062;2023-03-22T04:21:26;100650.66;;;12.70;76.96
17785;BME280;9016;53.582;10.062;2023-03-22T04:23:54;100641.03;;;12.80;76.84
17785;BME280;9016;53.582;10.062;2023-03-22T04:26:22;100648.72;;;12.72;77.31
17785;BME280;9016;53.582;10.062;2023-03-22T04:28:52;100641.34;;;12.75;77.04
17785;BME280;9016;53.582;10.062;2023-03-22T04:31:21;100641.84;;;12.80;76.57
17785;BME280;9016;53.582;10.062;2023-03-22T04:33:50;100633.00;;;12.80;76.59
17785;BME280;9016;53.582;10.062;2023-03-22T04:36:21;100630.06;;;12.95;76.01
17785;BME280;9016;53.582;10.062;2023-03-22T04:38:49;100631.25;;;12.91;76.03
17785;BME280;9016;53.582;10.062;2023-03-22T04:41:17;100641.66;;;12.83;76.28
17785;BME280;9016;53.582;10.062;2023-03-22T04:43:45;100636.19;;;12.85;75.71
17785;BME280;9016;53.582;10.062;2023-03-22T04:46:16;100629.69;;;12.64;76.12
17785;BME280;9016;53.582;10.062;2023-03-22T04:48:48;100629.47;;;12.79;76.77
17785;BME280;9016;53.582;10.062;2023-03-22T04:51:16;100632.78;;;12.70;76.49
17785;BME280;9016;53.582;10.062;2023-03-22T04:53:44;100636.75;;;12.65;77.30
17785;BME280;9016;53.582;10.062;2023-03-22T04:56:13;100624.34;;;12.64;76.76
17785;BME280;9016;53.582;10.062;2023-03-22T04:58:42;100620.81;;;12.63;77.02
17785;BME280;9016;53.582;10.062;2023-03-22T05:01:12;100621.75;;;12.75;76.28
17785;BME280;9016;53.582;10.062;2023-03-22T05:03:40;100624.75;;;12.83;75.79
17785;BME280;9016;53.582;10.062;2023-03-22T05:06:12;100621.22;;;12.70;76.12
17785;BME280;9016;53.582;10.062;2023-03-22T05:08:41;100620.69;;;12.77;76.27
17785;BME280;9016;53.582;10.062;2023-03-22T05:11:11;100621.75;;;12.75;75.67
17785;BME280;9016;53.582;10.062;2023-03-22T05:13:39;100620.47;;;12.80;75.92
17785;BME280;9016;53.582;10.062;2023-03-22T05:16:09;100612.75;;;12.88;75.50
17785;BME280;9016;53.582;10.062;2023-03-22T05:18:37;100619.81;;;12.89;76.35
17785;BME280;9016;53.582;10.062;2023-03-22T05:21:12;100616.38;;;12.87;75.86
17785;BME280;9016;53.582;10.062;2023-03-22T05:23:41;100624.22;;;12.90;76.28
17785;BME280;9016;53.582;10.062;2023-03-22T05:26:10;100614.44;;;12.89;75.94
17785;BME280;9016;53.582;10.062;2023-03-22T05:28:42;100624.31;;;12.89;76.00
17785;BME280;9016;53.582;10.062;2023-03-22T05:31:10;100624.63;;;12.84;75.53
17785;BME280;9016;53.582;10.062;2023-03-22T05:33:40;100627.09;;;12.75;76.24
17785;BME280;9016;53.582;10.062;2023-03-22T05:36:09;100626.16;;;12.76;76.21
17785;BME280;9016;53.582;10.062;2023-03-22T05:38:39;100630.63;;;12.88;76.19
17785;BME280;9016;53.582;10.062;2023-03-22T05:41:07;100632.22;;;12.90;76.18
17785;BME280;9016;53.582;10.062;2023-03-22T05:43:36;100632.22;;;13.03;75.83
17785;BME280;9016;53.582;10.062;2023-03-22T05:46:05;100628.38;;;12.94;75.42
17785;BME280;9016;53.582;10.062;2023-03-22T05:48:33;100627.94;;;12.88;75.49
17785;BME280;9016;53.582;10.062;2023-03-22T05:51:04;100629.13;;;12.84;75.26
17785;BME280;9016;53.582;10.062;2023-03-22T05:53:32;100624.53;;;12.73;75.75
17785;BME280;9016;53.582;10.062;2023-03-22T05:56:02;100628.94;;;12.74;75.50
17785;BME280;9016;53.582;10.062;2023-03-22T05:58:31;100626.69;;;12.81;75.75
17785;BME280;9016;53.582;10.062;2023-03-22T06:01:04;100627.28;;;12.97;74.69
17785;BME280;9016;53.582;10.062;2023-03-22T06:03:32;100630.81;;;12.98;74.82
17785;BME280;9016;53.582;10.062;2023-03-22T06:06:02;100629.44;;;13.05;74.46
17785;BME280;9016;53.582;10.062;2023-03-22T06:08:32;100629.00;;;12.98;74.72
17785;BME280;9016;53.582;10.062;2023-03-22T06:11:02;100626.97;;;13.02;74.23
17785;BME280;9016;53.582;10.062;2023-03-22T06:13:31;100624.72;;;13.08;74.07
17785;BME280;9016;53.582;10.062;2023-03-22T06:16:00;100615.00;;;13.07;74.06
17785;BME280;9016;53.582;10.062;2023-03-22T06:18:29;100614.56;;;13.13;74.01
17785;BME280;9016;53.582;10.062;2023-03-22T06:20:58;100607.28;;;13.03;74.03
17785;BME280;9016;53.582;10.062;2023-03-22T06:23:27;100600.41;;;12.98;74.66
17785;BME280;9016;53.582;10.062;2023-03-22T06:25:55;100606.00;;;13.08;74.03
17785;BME280;9016;53.582;10.062;2023-03-22T06:28:25;100613.16;;;13.20;73.87
17785;BME280;9016;53.582;10.062;2023-03-22T06:30:55;100610.06;;;13.37;73.75
17785;BME280;9016;53.582;10.062;2023-03-22T06:33:23;100615.66;;;13.34;73.21
17785;BME280;9016;53.582;10.062;2023-03-22T06:35:51;100606.38;;;13.51;72.70
17785;BME280;9016;53.582;10.062;2023-03-22T06:38:19;100600.00;;;13.64;72.29
17785;BME280;9016;53.582;10.062;2023-03-22T06:40:47;100613.28;;;13.66;72.14
17785;BME280;9016;53.582;10.062;2023-03-22T06:43:15;100610.88;;;13.74;72.08
17785;BME280;9016;53.582;10.062;2023-03-22T06:45:46;100618.97;;;13.85;71.85
17785;BME280;9016;53.582;10.062;2023-03-22T06:48:14;100609.78;;;13.76;71.66
17785;BME280;9016;53.582;10.062;2023-03-22T06:50:43;100620.94;;;13.70;71.36
17785;BME280;9016;53.582;10.062;2023-03-22T06:53:12;100605.63;;;13.72;71.77
17785;BME280;9016;53.582;10.062;2023-03-22T07:07:12;100618.88;;;13.63;72.70
17785;BME280;9016;53.582;10.062;2023-03-22T07:09:40;100611.16;;;13.58;72.37
17785;BME280;9016;53.582;10.062;2023-03-22T07:12:08;100600.34;;;13.60;71.97
17785;BME280;9016;53.582;10.062;2023-03-22T07:14:36;100598.41;;;13.62;71.52
17785;BME280;9016;53.582;10.062;2023-03-22T07:24:41;100595.22;;;13.57;72.37
17785;BME280;9016;53.582;10.062;2023-03-22T07:27:22;100589.38;;;13.52;71.88
17785;BME280;9016;53.582;10.062;2023-03-22T08:07:37;100534.19;;;13.73;73.12
17785;BME280;9016;53.582;10.062;2023-03-22T08:10:07;100525.28;;;13.72;73.34
17785;BME280;9016;53.582;10.062;2023-03-22T08:12:35;100521.06;;;13.81;73.34
17785;BME280;9016;53.582;10.062;2023-03-22T08:15:03;100514.56;;;13.72;73.10
17785;BME280;9016;53.582;10.062;2023-03-22T08:17:31;100509.16;;;13.85;73.51
17785;BME280;9016;53.582;10.062;2023-03-22T08:20:00;100502.47;;;14.02;72.72
17785;BME280;9016;53.582;10.062;2023-03-22T08:22:33;100505.41;;;14.21;72.21
17785;BME280;9016;53.582;10.062;2023-03-22T08:25:04;100497.00;;;14.03;72.46
17785;BME280;9016;53.582;10.062;2023-03-22T08:27:32;100493.22;;;14.17;72.16
17785;BME280;9016;53.582;10.062;2023-03-22T08:30:00;100492.59;;;14.24;72.10
17785;BME280;9016;53.582;10.062;2023-03-22T08:32:29;100483.03;;;14.44;71.37
17785;BME280;9016;53.582;10.062;2023-03-22T08:34:57;100472.63;;;14.72;70.64
17785;BME280;9016;53.582;10.062;2023-03-22T08:37:24;100479.94;;;14.70;70.64
17785;BME280;9016;53.582;10.062;2023-03-22T08:39:52;100478.69;;;14.85;69.55
17785;BME280;9016;53.582;10.062;2023-03-22T08:42:21;100476.94;;;15.07;68.79
17785;BME280;9016;53.582;10.062;2023-03-22T08:44:49;100469.78;;;16.40;67.41
17785;BME280;9016;53.582;10.062;2023-03-22T08:47:18;100468.72;;;17.78;62.18
17785;BME280;9016;53.582;10.062;2023-03-22T08:49:45;100468.88;;;19.04;58.20
17785;BME280;9016;53.582;10.062;2023-03-22T08:52:13;100465.53;;;20.24;52.12
17785;BME280;9016;53.582;10.062;2023-03-22T08:54:41;100455.25;;;21.03;50.92
17785;BME280;9016;53.582;10.062;2023-03-22T08:57:09;100448.50;;;21.23;50.34
17785;BME280;9016;53.582;10.062;2023-03-22T08:59:44;100462.78;;;19.90;51.61
17785;BME280;9016;53.582;10.062;2023-03-22T09:02:11;100453.16;;;18.55;54.83
17785;BME280;9016;53.582;10.062;2023-03-22T09:04:39;100452.06;;;18.65;55.89
17785;BME280;9016;53.582;10.062;2023-03-22T09:07:07;100452.84;;;19.20;54.15
17785;BME280;9016;53.582;10.062;2023-03-22T09:09:36;100449.34;;;19.81;53.17
17785;BME280;9016;53.582;10.062;2023-03-22T09:12:04;100447.22;;;19.31;53.01
17785;BME280;9016;53.582;10.062;2023-03-22T09:14:32;100448.50;;;19.10;53.22
17785;BME280;9016;53.582;10.062;2023-03-22T09:17:01;100443.34;;;20.20;51.48
17785;BME280;9016;53.582;10.062;2023-03-22T09:19:29;100443.19;;;20.22;49.84
17785;BME280;9016;53.582;10.062;2023-03-22T09:21:57;100434.63;;;20.09;50.29
17785;BME280;9016;53.582;10.062;2023-03-22T09:24:26;100450.84;;;19.57;51.24
17785;BME280;9016;53.582;10.062;2023-03-22T09:26:54;100447.44;;;19.03;51.72
17785;BME280;9016;53.582;10.062;2023-03-22T09:29:24;100451.06;;;18.94;52.90
17785;BME280;9016;53.582;10.062;2023-03-22T09:31:51;100441.00;;;18.32;53.83
17785;BME280;9016;53.582;10.062;2023-03-22T09:34:21;100445.25;;;18.34;54.30
17785;BME280;9016;53.582;10.062;2023-03-22T09:36:49;100433.88;;;18.40;54.41
17785;BME280;9016;53.582;10.062;2023-03-22T09:39:18;100441.53;;;18.08;55.22
17785;BME280;9016;53.582;10.062;2023-03-22T09:41:49;100435.22;;;17.80;55.78
17785;BME280;9016;53.582;10.062;2023-03-22T09:44:22;100424.59;;;17.69;55.98
17785;BME280;9016;53.582;10.062;2023-03-22T09:46:54;100419.22;;;17.03;57.34
17785;BME280;9016;53.582;10.062;2023-03-22T09:49:29;100425.91;;;16.99;57.81
17785;BME280;9016;53.582;10.062;2023-03-22T09:52:18;100411.28;;;16.92;57.68
17785;BME280;9016;53.582;10.062;2023-03-22T09:54:46;100418.38;;;16.73;58.08
17785;BME280;9016;53.582;10.062;2023-03-22T09:57:22;100419.31;;;16.53;58.22
17785;BME280;9016;53.582;10.062;2023-03-22T09:59:56;100424.63;;;16.44;58.28
17785;BME280;9016;53.582;10.062;2023-03-22T10:02:36;100420.19;;;16.63;58.16
17785;BME280;9016;53.582;10.062;2023-03-22T10:05:18;100418.41;;;16.93;57.73
17785;BME280;9016;53.582;10.062;2023-03-22T10:08:03;100413.44;;;17.17;57.16
17785;BME280;9016;53.582;10.062;2023-03-22T10:10:36;100414.41;;;17.06;56.76
17785;BME280;9016;53.582;10.062;2023-03-22T10:13:14;100406.19;;;17.36;55.80
17785;BME280;9016;53.582;10.062;2023-03-22T10:15:47;100406.19;;;17.27;55.14
17785;BME280;9016;53.582;10.062;2023-03-22T10:18:18;100400.81;;;17.36;55.22
17785;BME280;9016;53.582;10.062;2023-03-22T10:20:54;100415.13;;;16.79;56.18
17785;BME280;9016;53.582;10.062;2023-03-22T10:23:27;100395.72;;;16.76;56.95
17785;BME280;9016;53.582;10.062;2023-03-22T10:25:58;100400.53;;;17.01;56.48
17785;BME280;9016;53.582;10.062;2023-03-22T10:28:30;100395.16;;;16.92;56.30
17785;BME280;9016;53.582;10.062;2023-03-22T10:30:59;100404.50;;;16.78;56.32
17785;BME280;9016;53.582;10.062;2023-03-22T10:33:34;100410.81;;;16.48;57.33
17785;BME280;9016;53.582;10.062;2023-03-22T10:36:10;100414.25;;;16.69;57.23
17785;BME280;9016;53.582;10.062;2023-03-22T10:38:43;100406.94;;;16.41;57.70
17785;BME280;9016;53.582;10.062;2023-03-22T10:41:14;100405.06;;;16.72;57.31
17785;BME280;9016;53.582;10.062;2023-03-22T10:43:44;100403.81;;;16.86;57.20
17785;BME280;9016;53.582;10.062;2023-03-22T10:46:18;100409.31;;;16.74;56.12
17785;BME280;9016;53.582;10.062;2023-03-22T10:48:49;100412.00;;;16.74;56.03
17785;BME280;9016;53.582;10.062;2023-03-22T10:51:25;100406.75;;;16.82;55.13
17785;BME280;9016;53.582;10.062;2023-03-22T10:53:55;100403.19;;;16.53;55.39
17785;BME280;9016;53.582;10.062;2023-03-22T10:56:24;100405.47;;;16.77;55.19
17785;BME280;9016;53.582;10.062;2023-03-22T10:58:54;100409.72;;;16.70;55.29
17785;BME280;9016;53.582;10.062;2023-03-22T11:01:27;100405.09;;;16.91;54.18
17785;BME280;9016;53.582;10.062;2023-03-22T11:03:59;100406.16;;;16.50;54.90
17785;BME280;9016;53.582;10.062;2023-03-22T11:06:30;100398.97;;;16.79;54.78
17785;BME280;9016;53.582;10.062;2023-03-22T11:09:10;100407.31;;;16.67;54.26
17785;BME280;9016;53.582;10.062;2023-03-22T11:11:45;100416.13;;;16.98;53.48
17785;BME280;9016;53.582;10.062;2023-03-22T11:14:19;100403.78;;;16.76;54.11
17785;BME280;9016;53.582;10.062;2023-03-22T11:16:52;100404.22;;;16.81;54.03
17785;BME280;9016;53.582;10.062;2023-03-22T11:19:24;100411.03;;;17.04;53.88
17785;BME280;9016;53.582;10.062;2023-03-22T11:21:54;100413.72;;;16.85;54.44
17785;BME280;9016;53.582;10.062;2023-03-22T11:24:24;100416.28;;;16.96;53.45
17785;BME280;9016;53.582;10.062;2023-03-22T11:27:01;100424.91;;;16.71;53.57
17785;BME280;9016;53.582;10.062;2023-03-22T11:29:39;100420.22;;;16.82;53.72
17785;BME280;9016;53.582;10.062;2023-03-22T11:32:20;100409.19;;;16.86;53.58
17785;BME280;9016;53.582;10.062;2023-03-22T11:34:58;100420.34;;;16.71;53.50
17785;BME280;9016;53.582;10.062;2023-03-22T11:37:28;100405.44;;;16.48;54.31
17785;BME280;9016;53.582;10.062;2023-03-22T11:40:00;100426.00;;;16.68;53.42
17785;BME280;9016;53.582;10.062;2023-03-22T11:42:33;100417.28;;;16.46;54.08
17785;BME280;9016;53.582;10.062;2023-03-22T11:45:01;100419.81;;;16.38;54.23
17785;BME280;9016;53.582;10.062;2023-03-22T11:47:33;100415.94;;;16.61;54.76
17785;BME280;9016;53.582;10.062;2023-03-22T11:50:04;100423.50;;;16.76;54.02
17785;BME280;9016;53.582;10.062;2023-03-22T11:52:37;100415.22;;;16.59;53.36
17785;BME280;9016;53.582;10.062;2023-03-22T11:55:06;100425.88;;;16.30;53.31
17785;BME280;9016;53.582;10.062;2023-03-22T11:57:34;100421.66;;;16.37;53.89
17785;BME280;9016;53.582;10.062;2023-03-22T12:00:07;100412.59;;;16.38;53.52
17785;BME280;9016;53.582;10.062;2023-03-22T12:02:43;100407.22;;;16.38;54.17
17785;BME280;9016;53.582;10.062;2023-03-22T12:05:17;100404.13;;;16.43;54.30
17785;BME280;9016;53.582;10.062;2023-03-22T12:07:52;100393.00;;;16.66;53.73
17785;BME280;9016;53.582;10.062;2023-03-22T12:10:25;100399.00;;;16.40;54.20
17785;BME280;9016;53.582;10.062;2023-03-22T12:12:58;100414.31;;;16.39;54.93
17785;BME280;9016;53.582;10.062;2023-03-22T12:15:28;100403.88;;;16.55;54.21
17785;BME280;9016;53.582;10.062;2023-03-22T12:18:02;100399.59;;;16.43;54.65
17785;BME280;9016;53.582;10.062;2023-03-22T12:20:38;100398.34;;;16.47;54.53
17785;BME280;9016;53.582;10.062;2023-03-22T12:23:17;100397.38;;;16.48;54.13
17785;BME280;9016;53.582;10.062;2023-03-22T12:25:49;100403.22;;;16.33;54.67
17785;BME280;9016;53.582;10.062;2023-03-22T12:28:19;100388.19;;;16.21;54.60
17785;BME280;9016;53.582;10.062;2023-03-22T12:30:51;100398.22;;;16.58;54.56
17785;BME280;9016;53.582;10.062;2023-03-22T12:33:24;100403.59;;;16.58;53.81
17785;BME280;9016;53.582;10.062;2023-03-22T12:35:56;100382.03;;;16.39;53.49
17785;BME280;9016;53.582;10.062;2023-03-22T12:38:31;100394.25;;;16.13;53.72
17785;BME280;9016;53.582;10.062;2023-03-22T12:41:06;100396.19;;;16.02;54.15
17785;BME280;9016;53.582;10.062;2023-03-22T12:43:46;100396.31;;;16.30;54.37
17785;BME280;9016;53.582;10.062;2023-03-22T12:46:18;100388.66;;;16.35;53.64
17785;BME280;9016;53.582;10.062;2023-03-22T12:48:49;100390.41;;;16.06;53.18
17785;BME280;9016;53.582;10.062;2023-03-22T12:51:19;100406.34;;;15.98;53.57
17785;BME280;9016;53.582;10.062;2023-03-22T12:53:50;100404.19;;;15.92;53.81
17785;BME280;9016;53.582;10.062;2023-03-22T12:56:22;100394.69;;;16.18;53.53
17785;BME280;9016;53.582;10.062;2023-03-22T12:58:55;100397.56;;;16.26;54.71
17785;BME280;9016;53.582;10.062;2023-03-22T13:01:30;100387.31;;;16.11;55.70
17785;BME280;9016;53.582;10.062;2023-03-22T13:04:27;100402.84;;;16.07;56.43
17785;BME280;9016;53.582;10.062;2023-03-22T13:06:57;100401.97;;;15.67;57.78
17785;BME280;9016;53.582;10.062;2023-03-22T13:09:38;100408.84;;;15.90;59.17
17785;BME280;9016;53.582;10.062;2023-03-22T13:12:31;100409.88;;;15.68;59.37
17785;BME280;9016;53.582;10.062;2023-03-22T13:15:28;100411.53;;;15.60;60.10
17785;BME280;9016;53.582;10.062;2023-03-22T13:18:27;100419.91;;;15.46;59.63
17785;BME280;9016;53.582;10.062;2023-03-22T13:21:11;100418.69;;;15.39;59.98
17785;BME280;9016;53.582;10.062;2023-03-22T13:23:59;100420.13;;;15.22;60.42
17785;BME280;9016;53.582;10.062;2023-03-22T13:26:36;100420.97;;;15.23;62.02
17785;BME280;9016;53.582;10.062;2023-03-22T13:29:10;100423.22;;;15.18;62.35
17785;BME280;9016;53.582;10.062;2023-03-22T13:31:44;100428.53;;;15.29;62.74
17785;BME280;9016;53.582;10.062;2023-03-22T13:34:16;100423.13;;;15.08;62.08
17785;BME280;9016;53.582;10.062;2023-03-22T13:36:49;100431.00;;;15.21;61.86
17785;BME280;9016;53.582;10.062;2023-03-22T13:39:17;100416.91;;;15.08;62.42
17785;BME280;9016;53.582;10.062;2023-03-22T13:42:01;100414.31;;;15.17;62.45
17785;BME280;9016;53.582;10.062;2023-03-22T13:44:35;100417.31;;;15.24;61.91
17785;BME280;9016;53.582;10.062;2023-03-22T13:47:07;100417.44;;;15.22;62.04
17785;BME280;9016;53.582;10.062;2023-03-22T13:49:44;100408.59;;;15.11;62.40
17785;BME280;9016;53.582;10.062;2023-03-22T13:52:35;100410.00;;;14.94;62.84
17785;BME280;9016;53.582;10.062;2023-03-22T13:55:14;100417.22;;;14.94;63.23
17785;BME280;9016;53.582;10.062;2023-03-22T13:57:54;100414.75;;;14.90;63.34
17785;BME280;9016;53.582;10.062;2023-03-22T14:00:51;100410.66;;;14.86;63.51
17785;BME280;9016;53.582;10.062;2023-03-22T14:03:27;100406.22;;;14.97;63.80
17785;BME280;9016;53.582;10.062;2023-03-22T14:06:10;100413.72;;;15.14;62.79
17785;BME280;9016;53.582;10.062;2023-03-22T14:08:43;100422.78;;;15.02;62.82
17785;BME280;9016;53.582;10.062;2023-03-22T14:11:20;100430.97;;;15.00;63.48
17785;BME280;9016;53.582;10.062;2023-03-22T14:13:56;100429.25;;;14.99;63.40
17785;BME280;9016;53.582;10.062;2023-03-22T14:16:35;100415.34;;;14.94;63.11